Time;durP1;ratioP1;P1;durP2;ratioP2;P2;SDS_P1;SDS_P2;PMS_P1;PMS_P2;Temp;Humidity;BMP_temperature;BMP_pressure;BME280_temperature;BME280_humidity;BME280_pressure;Samples;Min_cycle;Max_cycle;Signal;HPM_P1;HPM_P2
2023/07/28 04:22:32;;;;;;;6.38;3.67;;;;;;;17.59;100.00;99530.38;5130082;27;20329;-66
2023/07/28 04:24:57;;;;;;;4.55;3.15;;;;;;;17.58;100.00;99530.63;5111879;28;20032;-65
2023/07/28 04:27:23;;;;;;;6.97;3.60;;;;;;;17.58;100.00;99522.53;5128018;28;20134;-66
2023/07/28 04:29:51;;;;;;;6.45;2.97;;;;;;;17.57;100.00;99529.78;5128539;28;20134;-66
2023/07/28 04:32:19;;;;;;;3.85;2.88;;;;;;;17.60;100.00;99518.56;5129778;27;20031;-66
2023/07/28 04:34:45;;;;;;;4.00;3.08;;;;;;;17.63;100.00;99519.97;5128939;28;20037;-66
2023/07/28 04:37:13;;;;;;;;;;;;;;;17.63;100.00;99512.69;5129235;28;20036;-66
2023/07/28 04:39:53;;;;;;;5.38;3.10;;;;;;;17.59;100.00;99516.91;5128512;28;19915;-66
2023/07/28 04:42:19;;;;;;;4.53;3.00;;;;;;;17.61;100.00;99522.91;5128486;28;20049;-66
2023/07/28 04:44:46;;;;;;;4.95;3.60;;;;;;;17.61;100.00;99522.91;5128741;28;20031;-65
2023/07/28 04:47:12;;;;;;;6.80;3.80;;;;;;;17.59;100.00;99530.38;5128496;28;20576;-66
2023/07/28 04:49:37;;;;;;;4.95;3.65;;;;;;;17.58;100.00;99523.34;5128230;28;20067;-66
2023/07/28 04:52:06;;;;;;;4.88;3.95;;;;;;;17.55;100.00;99536.50;5128572;28;20035;-66
2023/07/28 04:54:50;;;;;;;4.28;3.45;;;;;;;17.58;100.00;99539.50;5129713;28;20082;-66
2023/07/28 04:57:17;;;;;;;5.30;4.05;;;;;;;17.55;100.00;99539.19;5128583;28;20063;-66
2023/07/28 04:59:43;;;;;;;4.93;3.47;;;;;;;17.54;100.00;99538.38;5129494;27;20088;-66
2023/07/28 05:02:08;;;;;;;6.35;3.70;;;;;;;17.53;100.00;99536.69;5128056;28;20377;-66
2023/07/28 05:04:36;;;;;;;5.18;3.60;;;;;;;17.57;100.00;99545.13;5129662;27;20035;-66
2023/07/28 05:07:01;;;;;;;6.95;4.10;;;;;;;17.53;100.00;99547.47;5128111;28;20424;-66
2023/07/28 05:09:28;;;;;;;6.13;4.25;;;;;;;17.54;100.00;99543.75;5127823;28;20071;-65
2023/07/28 05:11:53;;;;;;;4.80;3.67;;;;;;;17.54;100.00;99545.59;5128112;28;20565;-66
2023/07/28 05:14:19;;;;;;;5.60;3.83;;;;;;;17.55;100.00;99550.75;5128227;28;20040;-66
2023/07/28 05:16:44;;;;;;;5.70;3.78;;;;;;;17.57;100.00;99548.66;5127860;28;20074;-66
2023/07/28 05:19:10;;;;;;;4.80;3.72;;;;;;;17.58;100.00;99550.28;5129016;27;20039;-66
2023/07/28 05:21:44;;;;;;;5.38;3.70;;;;;;;17.62;100.00;99548.75;5129218;27;20062;-66
2023/07/28 05:24:12;;;;;;;5.70;3.95;;;;;;;17.60;100.00;99552.72;5127763;28;20054;-66
2023/07/28 05:26:38;;;;;;;8.43;4.88;;;;;;;17.64;100.00;99545.81;5127818;28;20648;-66
2023/07/28 05:29:04;;;;;;;4.65;3.85;;;;;;;17.63;100.00;99550.41;5127430;28;20042;-66
2023/07/28 05:31:29;;;;;;;6.28;4.43;;;;;;;17.64;100.00;99553.91;5127701;28;20369;-66
2023/07/28 05:33:55;;;;;;;7.03;3.83;;;;;;;17.66;100.00;99556.34;5113774;28;20064;-66
2023/07/28 05:36:20;;;;;;;6.75;4.10;;;;;;;17.71;100.00;99561.88;5115228;28;20039;-66
2023/07/28 05:38:47;;;;;;;7.50;3.80;;;;;;;17.71;100.00;99556.47;5113635;28;20035;-66
2023/07/28 05:41:12;;;;;;;6.57;4.85;;;;;;;17.77;100.00;99563.66;5115094;28;20028;-66
2023/07/28 05:43:38;;;;;;;8.98;5.88;;;;;;;17.76;100.00;99562.81;5115118;28;20063;-66
2023/07/28 05:46:03;;;;;;;5.85;4.28;;;;;;;17.77;100.00;99569.03;5113663;28;20039;-65
2023/07/28 05:48:33;;;;;;;5.30;4.20;;;;;;;17.76;100.00;99576.28;5113246;28;20036;-65
2023/07/28 05:50:58;;;;;;;5.50;3.90;;;;;;;17.73;100.00;99578.63;5113392;28;20115;-65
2023/07/28 05:53:24;;;;;;;6.50;4.07;;;;;;;17.77;100.00;99587.88;5114808;28;20093;-64
2023/07/28 05:55:54;;;;;;;5.35;3.78;;;;;;;17.78;100.00;99593.03;5113689;28;20122;-65
2023/07/28 05:58:20;;;;;;;4.72;3.47;;;;;;;17.79;100.00;99593.84;5113398;28;20126;-66
2023/07/28 06:00:46;;;;;;;5.30;3.38;;;;;;;17.80;100.00;99598.19;5113441;28;20019;-65
2023/07/28 06:03:30;;;;;;;4.32;3.00;;;;;;;17.77;100.00;99595.97;5113391;28;20071;-66
2023/07/28 06:06:07;;;;;;;4.47;3.05;;;;;;;17.78;100.00;99598.41;5113343;28;20115;-66
2023/07/28 06:08:32;;;;;;;3.42;2.35;;;;;;;17.77;100.00;99601.34;5113883;28;20118;-64
2023/07/28 06:10:58;;;;;;;3.63;2.38;;;;;;;17.76;100.00;99599.72;5115008;28;20526;-65
2023/07/28 06:13:23;;;;;;;3.10;2.15;;;;;;;17.70;100.00;99606.00;5113345;28;20085;-64
2023/07/28 06:15:49;;;;;;;3.67;2.60;;;;;;;17.69;100.00;99615.16;5113250;28;20037;-64
2023/07/28 06:18:14;;;;;;;3.92;2.50;;;;;;;17.68;100.00;99605.44;5114144;28;20486;-65
2023/07/28 06:20:44;;;;;;;3.22;2.50;;;;;;;17.62;100.00;99601.81;5113265;28;20507;-64
2023/07/28 06:23:10;;;;;;;2.25;1.70;;;;;;;17.60;100.00;99599.34;5113115;28;20476;-64
2023/07/28 06:25:38;;;;;;;4.22;2.45;;;;;;;17.62;100.00;99596.41;5112856;28;20073;-64
2023/07/28 06:28:07;;;;;;;3.10;1.52;;;;;;;17.58;100.00;99601.44;5113228;28;20035;-64
2023/07/28 06:30:32;;;;;;;2.40;1.73;;;;;;;17.57;100.00;99601.69;5114405;28;20115;-64
2023/07/28 06:32:57;;;;;;;2.80;1.67;;;;;;;17.60;100.00;99599.34;5113770;28;20032;-64
2023/07/28 06:35:23;;;;;;;3.67;1.85;;;;;;;17.54;100.00;99600.28;5096677;28;20028;-64
2023/07/28 06:37:48;;;;;;;1.60;1.15;;;;;;;17.54;100.00;99611.06;5113526;28;20035;-64
2023/07/28 06:40:14;;;;;;;1.92;1.52;;;;;;;17.52;100.00;99599.69;5113679;28;20040;-64
2023/07/28 06:42:39;;;;;;;3.00;1.70;;;;;;;17.54;100.00;99613.75;5113221;28;20043;-65
2023/07/28 06:45:06;;;;;;;1.92;1.20;;;;;;;17.57;100.00;99615.97;5111613;28;20035;-64
2023/07/28 06:47:32;;;;;;;2.20;1.35;;;;;;;17.55;100.00;99618.09;5114181;28;20454;-64
2023/07/28 06:49:57;;;;;;;1.80;1.30;;;;;;;17.61;100.00;99614.44;5112598;28;20506;-64
2023/07/28 06:52:23;;;;;;;2.63;1.38;;;;;;;17.62;100.00;99617.97;5112642;28;20534;-64
2023/07/28 06:54:49;;;;;;;2.25;1.30;;;;;;;17.62;100.00;99626.03;5113747;28;20044;-63
2023/07/28 06:57:15;;;;;;;2.30;1.25;;;;;;;17.67;100.00;99619.94;5112395;28;20035;-63
2023/07/28 06:59:41;;;;;;;3.38;1.92;;;;;;;17.66;100.00;99626.38;5112953;28;20042;-64
2023/07/28 07:02:08;;;;;;;2.60;1.70;;;;;;;17.70;100.00;99633.75;5112656;28;20114;-65
2023/07/28 07:04:33;;;;;;;2.50;1.77;;;;;;;17.75;100.00;99631.22;5112507;28;20176;-65
2023/07/28 07:06:58;;;;;;;1.95;1.67;;;;;;;17.80;100.00;99636.72;5112268;28;20046;-66
2023/07/28 07:09:24;;;;;;;2.97;1.80;;;;;;;17.87;100.00;99632.03;5112031;28;20031;-66
2023/07/28 07:11:50;;;;;;;1.88;1.50;;;;;;;17.84;100.00;99635.19;5113470;28;20395;-66
2023/07/28 07:14:16;;;;;;;2.83;1.38;;;;;;;17.89;100.00;99640.69;5112128;28;20032;-66
2023/07/28 07:16:42;;;;;;;2.20;1.60;;;;;;;17.97;100.00;99638.69;5113155;28;20059;-66
2023/07/28 07:19:08;;;;;;;2.50;1.63;;;;;;;17.97;100.00;99642.22;5113223;28;20133;-66
2023/07/28 07:21:34;;;;;;;2.08;1.67;;;;;;;18.03;100.00;99645.84;5113154;28;20518;-66
2023/07/28 07:23:59;;;;;;;2.42;1.75;;;;;;;18.04;100.00;99650.97;5113380;28;20122;-65
2023/07/28 07:26:24;;;;;;;2.75;1.73;;;;;;;18.08;100.00;99649.47;5112969;28;20055;-66
2023/07/28 07:28:50;;;;;;;2.20;1.60;;;;;;;18.09;100.00;99653.78;5112910;28;20039;-65
2023/07/28 07:31:15;;;;;;;3.65;1.80;;;;;;;18.14;100.00;99656.59;5113087;28;20035;-65
2023/07/28 07:33:41;;;;;;;2.78;1.73;;;;;;;18.09;100.00;99658.38;5113215;28;20073;-66
2023/07/28 07:36:17;;;;;;;2.55;1.77;;;;;;;18.00;100.00;99649.84;5112898;28;20042;-65
2023/07/28 07:38:46;;;;;;;2.00;1.40;;;;;;;18.13;100.00;99665.75;5111262;28;20054;-49
2023/07/28 07:41:12;;;;;;;2.20;1.55;;;;;;;18.16;100.00;99664.44;5112843;28;20136;-52
2023/07/28 07:43:38;;;;;;;3.08;1.95;;;;;;;18.17;100.00;99674.16;5113041;28;20067;-50
2023/07/28 07:46:04;;;;;;;2.38;1.70;;;;;;;18.14;100.00;99666.56;5112716;28;20040;-54
2023/07/28 07:48:30;;;;;;;1.90;1.30;;;;;;;18.21;100.00;99669.97;5112481;28;20051;-64
2023/07/28 07:50:56;;;;;;;2.33;1.73;;;;;;;18.30;100.00;99676.59;5112753;28;20115;-64
2023/07/28 07:53:21;;;;;;;3.05;1.70;;;;;;;18.37;100.00;99666.50;5112826;28;20035;-63
2023/07/28 07:55:47;;;;;;;2.10;1.60;;;;;;;18.45;100.00;99668.00;5112205;28;20488;-64
2023/07/28 07:58:13;;;;;;;3.10;2.08;;;;;;;18.57;100.00;99673.38;5112028;28;20032;-64
2023/07/28 08:00:38;;;;;;;3.45;2.10;;;;;;;18.77;100.00;99664.91;5112667;28;20495;-64
2023/07/28 08:03:05;;;;;;;3.25;1.98;;;;;;;18.87;100.00;99665.91;5112617;28;20114;-64
2023/07/28 08:05:30;;;;;;;3.17;2.00;;;;;;;18.98;100.00;99666.94;5112720;28;20039;-64
2023/07/28 08:07:56;;;;;;;2.42;1.80;;;;;;;19.13;100.00;99669.91;5112599;28;20136;-64
2023/07/28 08:10:22;;;;;;;3.10;1.98;;;;;;;19.24;100.00;99671.72;5112252;28;20484;-64
2023/07/28 08:12:47;;;;;;;4.43;2.00;;;;;;;19.30;100.00;99675.34;5112312;28;20492;-64
2023/07/28 08:15:13;;;;;;;2.60;2.10;;;;;;;19.48;100.00;99683.19;5112378;28;20043;-64
2023/07/28 08:17:39;;;;;;;2.75;1.85;;;;;;;19.74;100.00;99686.31;5112460;28;20054;-63
2023/07/28 08:20:06;;;;;;;1.92;1.67;;;;;;;19.95;100.00;99690.13;5112215;28;20044;-63
2023/07/28 08:22:32;;;;;;;2.33;1.83;;;;;;;20.09;100.00;99691.44;5112329;28;20036;-63
2023/07/28 08:24:57;;;;;;;3.97;1.73;;;;;;;20.17;100.00;99691.00;5112491;28;20448;-63
2023/07/28 08:27:23;;;;;;;2.78;1.70;;;;;;;20.37;100.00;99697.78;5112149;28;20040;-63
2023/07/28 08:29:49;;;;;;;2.30;1.67;;;;;;;20.56;100.00;99691.00;5112130;28;20035;-63
2023/07/28 08:32:14;;;;;;;9.32;1.77;;;;;;;20.65;100.00;99692.19;5112343;28;20120;-63
2023/07/28 08:34:40;;;;;;;2.13;1.45;;;;;;;20.93;100.00;99685.75;5112312;28;20081;-64
2023/07/28 08:37:05;;;;;;;2.38;1.20;;;;;;;21.11;100.00;99679.97;5112106;28;20513;-62
2023/07/28 08:39:33;;;;;;;2.70;1.35;;;;;;;21.18;100.00;99684.38;5112022;28;20089;-63
2023/07/28 08:42:03;;;;;;;1.33;1.20;;;;;;;21.21;100.00;99686.56;5112013;28;20032;-62
2023/07/28 08:44:34;;;;;;;1.58;1.15;;;;;;;21.44;100.00;99680.03;5112224;28;20031;-62
2023/07/28 08:47:01;;;;;;;1.92;1.33;;;;;;;21.54;100.00;99683.66;5112173;28;20035;-63
2023/07/28 08:49:27;;;;;;;2.03;1.50;;;;;;;21.78;100.00;99684.09;5111877;28;20399;-62
2023/07/28 08:51:58;;;;;;;3.28;1.80;;;;;;;21.64;100.00;99682.91;5112279;28;20026;-63
2023/07/28 08:54:24;;;;;;;2.70;1.48;;;;;;;21.60;100.00;99670.97;5111978;28;20040;-64
2023/07/28 08:56:50;;;;;;;10.98;6.93;;;;;;;21.67;100.00;99680.50;5112046;28;20500;-63
2023/07/28 08:59:23;;;;;;;4.68;1.70;;;;;;;21.60;100.00;99677.19;5111761;28;20044;-62
2023/07/28 09:01:57;;;;;;;2.75;1.45;;;;;;;21.70;100.00;99684.56;5112020;28;20039;-62
2023/07/28 09:04:24;;;;;;;2.00;1.40;;;;;;;21.79;100.00;99690.34;5112050;28;20039;-63
2023/07/28 09:06:49;;;;;;;2.10;1.52;;;;;;;21.89;100.00;99691.22;5111986;28;20015;-62
2023/07/28 09:09:15;;;;;;;2.00;1.30;;;;;;;21.97;100.00;99697.22;5114100;28;20123;-64
2023/07/28 09:11:46;;;;;;;1.60;1.30;;;;;;;21.88;100.00;99689.59;5115934;28;20027;-64
2023/07/28 09:14:19;;;;;;;1.88;1.33;;;;;;;21.95;100.00;99692.88;5115700;28;20475;-63
2023/07/28 09:16:45;;;;;;;2.10;1.30;;;;;;;22.09;97.44;99684.31;5115753;28;20058;-64
2023/07/28 09:19:11;;;;;;;2.00;1.40;;;;;;;22.38;100.00;99690.19;5115410;28;20024;-64
2023/07/28 09:21:38;;;;;;;1.90;1.30;;;;;;;22.24;97.58;99692.56;5115479;28;20503;-64
2023/07/28 09:24:06;;;;;;;2.33;1.52;;;;;;;22.17;96.40;99697.41;5115458;28;20043;-63
2023/07/28 09:26:48;;;;;;;2.38;1.45;;;;;;;22.34;96.47;99692.59;5115583;28;20043;-63
2023/07/28 09:29:18;;;;;;;3.75;1.58;;;;;;;22.68;94.52;99695.72;5115266;28;20042;-63
2023/07/28 09:31:45;;;;;;;2.63;1.45;;;;;;;23.01;94.38;99697.22;5115646;28;20035;-63
2023/07/28 09:34:12;;;;;;;2.05;1.40;;;;;;;23.23;92.15;99690.75;5115306;28;20042;-64
2023/07/28 09:36:39;;;;;;;3.10;1.58;;;;;;;23.39;90.58;99697.00;5115210;28;20081;-63
2023/07/28 09:39:08;;;;;;;4.05;1.45;;;;;;;23.45;89.78;99691.28;5114900;28;20035;-64
2023/07/28 09:41:36;;;;;;;2.17;1.45;;;;;;;23.62;89.44;99692.97;5115430;28;20420;-63
2023/07/28 09:44:01;;;;;;;2.58;1.55;;;;;;;23.68;88.81;99683.72;5115299;28;20476;-62
2023/07/28 09:46:28;;;;;;;3.83;1.50;;;;;;;23.85;87.07;99684.22;5115222;27;20079;-64
2023/07/28 09:48:56;;;;;;;2.35;1.55;;;;;;;23.61;86.15;99691.31;5114919;28;20110;-63
2023/07/28 09:51:29;;;;;;;2.42;2.00;;;;;;;23.34;87.89;99700.53;5115096;28;20169;-63
2023/07/28 09:54:06;;;;;;;4.72;2.22;;;;;;;22.98;86.48;99697.75;5115121;28;20046;-62
2023/07/28 09:56:32;;;;;;;2.10;1.60;;;;;;;22.96;86.41;99693.69;5115086;28;20093;-63
2023/07/28 09:58:58;;;;;;;1.98;1.60;;;;;;;23.03;89.78;99691.53;5114561;28;20392;-64
2023/07/28 10:01:24;;;;;;;3.40;1.70;;;;;;;22.98;90.09;99692.31;5115064;27;20399;-63
2023/07/28 10:03:50;;;;;;;2.20;1.55;;;;;;;22.90;88.20;99698.28;5115009;28;20047;-63
2023/07/28 10:06:19;;;;;;;3.38;1.80;;;;;;;22.78;89.68;99700.38;5114729;28;20038;-63
2023/07/28 10:08:45;;;;;;;3.05;1.83;;;;;;;22.77;90.24;99697.94;5114557;28;20031;-63
2023/07/28 10:11:16;;;;;;;1.95;1.60;;;;;;;22.73;90.36;99706.59;5114690;28;20035;-63
2023/07/28 10:13:44;;;;;;;3.45;1.70;;;;;;;22.67;89.52;99706.84;5114670;28;20440;-64
2023/07/28 10:16:09;;;;;;;2.63;1.98;;;;;;;22.51;89.09;99710.59;5113902;28;20537;-65
2023/07/28 10:18:36;;;;;;;2.33;1.80;;;;;;;22.40;91.71;99710.53;5114322;28;20035;-66
2023/07/28 10:21:07;;;;;;;2.20;1.58;;;;;;;22.32;89.84;99705.63;5113206;28;20075;-66
2023/07/28 10:23:37;;;;;;;2.58;1.65;;;;;;;22.18;91.42;99704.47;5114435;28;20081;-65
2023/07/28 10:26:05;;;;;;;3.15;1.83;;;;;;;22.07;92.78;99708.97;5114258;28;20084;-67
2023/07/28 10:28:40;;;;;;;2.55;1.85;;;;;;;22.04;93.37;99714.94;5114167;28;20059;-65
2023/07/28 10:31:10;;;;;;;2.47;1.60;;;;;;;22.08;93.84;99717.91;5112837;28;20031;-66
2023/07/28 10:33:40;;;;;;;2.00;1.50;;;;;;;22.17;93.70;99717.22;5114113;28;20031;-65
2023/07/28 10:36:14;;;;;;;2.38;1.55;;;;;;;22.29;94.72;99718.88;5114131;28;20038;-65
2023/07/28 10:38:40;;;;;;;2.30;1.48;;;;;;;22.40;94.40;99713.25;5114015;28;20035;-66
2023/07/28 10:41:18;;;;;;;3.28;1.40;;;;;;;22.42;92.84;99710.25;5113939;28;20486;-65
2023/07/28 10:43:45;;;;;;;2.10;1.50;;;;;;;22.48;91.79;99706.50;5114164;28;20035;-65
2023/07/28 10:46:14;;;;;;;2.03;1.48;;;;;;;22.58;90.28;99706.56;5113714;28;20031;-65
2023/07/28 10:48:44;;;;;;;4.93;1.73;;;;;;;22.65;89.82;99711.75;5113891;28;20030;-64
2023/07/28 10:51:11;;;;;;;2.60;1.80;;;;;;;22.62;90.27;99710.34;5113858;28;20035;-65
2023/07/28 10:53:37;;;;;;;8.15;3.70;;;;;;;22.57;90.75;99714.97;5114073;28;20048;-66
2023/07/28 10:56:03;;;;;;;2.55;1.65;;;;;;;22.61;91.22;99714.16;5113943;27;20053;-66
2023/07/28 10:58:31;;;;;;;3.28;1.98;;;;;;;22.63;91.09;99705.78;5113605;28;20033;-65
2023/07/28 11:00:56;;;;;;;2.03;1.40;;;;;;;22.65;92.16;99706.31;5113715;28;20127;-65
2023/07/28 11:03:22;;;;;;;1.75;1.35;;;;;;;22.72;92.80;99709.59;5113784;28;20122;-65
2023/07/28 11:05:50;;;;;;;2.55;1.38;;;;;;;22.66;93.83;99713.38;5113500;28;20459;-65
2023/07/28 11:08:16;;;;;;;2.35;1.50;;;;;;;22.65;93.30;99709.03;5113478;28;20144;-65
2023/07/28 11:10:41;;;;;;;2.65;1.40;;;;;;;22.58;89.80;99714.69;5113360;28;20114;-64
2023/07/28 11:13:07;;;;;;;2.00;1.50;;;;;;;22.65;89.95;99722.59;5113596;28;20484;-65
2023/07/28 11:15:35;;;;;;;2.17;1.52;;;;;;;22.62;89.71;99720.41;5113477;28;20051;-64
2023/07/28 11:18:02;;;;;;;1.98;1.50;;;;;;;22.62;89.80;99714.97;5113205;28;20054;-65
2023/07/28 11:20:28;;;;;;;;;;;;;;;22.63;89.41;99708.47;5113423;28;20125;-65
2023/07/28 11:23:00;;;;;;;2.17;1.27;;;;;;;22.66;90.37;99716.91;5113217;28;20014;-64
2023/07/28 11:25:27;;;;;;;2.47;1.08;;;;;;;22.65;89.50;99715.25;5113504;28;20537;-64
2023/07/28 11:27:53;;;;;;;6.30;3.78;;;;;;;22.65;88.87;99722.59;5113231;28;20035;-64
2023/07/28 11:30:19;;;;;;;1.92;1.30;;;;;;;22.61;90.10;99724.19;5110430;28;20145;-64
2023/07/28 11:32:48;;;;;;;1.88;1.25;;;;;;;22.60;90.29;99722.56;5112960;28;20067;-64
2023/07/28 11:35:16;;;;;;;1.95;1.20;;;;;;;22.56;91.57;99726.88;5113110;28;20442;-64
2023/07/28 11:37:43;;;;;;;2.63;1.55;;;;;;;22.46;94.52;99733.09;5112903;28;20069;-63
2023/07/28 11:40:11;;;;;;;2.97;1.45;;;;;;;22.25;100.00;99737.59;5112839;28;20392;-64
2023/07/28 11:42:44;;;;;;;3.17;1.55;;;;;;;22.14;100.00;99736.69;5112832;28;20036;-64
2023/07/28 11:45:12;;;;;;;1.88;1.38;;;;;;;22.04;100.00;99735.78;5112955;28;20395;-65
2023/07/28 11:47:37;;;;;;;;;;;;;;;21.94;100.00;99740.06;5111865;28;20061;-64
2023/07/28 11:50:03;;;;;;;2.33;1.52;;;;;;;21.89;100.00;99733.78;5111738;28;19957;-65
2023/07/28 11:52:33;;;;;;;2.78;1.60;;;;;;;21.64;100.00;99734.38;5112466;28;20027;-64
2023/07/28 11:55:00;;;;;;;2.42;1.63;;;;;;;21.71;100.00;99732.28;5112705;28;20035;-65
2023/07/28 11:57:32;;;;;;;2.75;2.03;;;;;;;21.68;100.00;99730.09;5112506;28;20062;-65
2023/07/28 11:59:59;;;;;;;2.92;1.80;;;;;;;21.73;100.00;99726.63;5112454;28;20031;-65
2023/07/28 12:02:28;;;;;;;3.28;1.88;;;;;;;21.71;100.00;99717.91;5111407;28;20028;-65
2023/07/28 12:04:55;;;;;;;3.55;1.80;;;;;;;21.71;100.00;99720.63;5110612;28;20408;-64
2023/07/28 12:07:29;;;;;;;2.97;2.10;;;;;;;21.76;100.00;99710.63;5112234;28;20035;-65
2023/07/28 12:10:00;;;;;;;8.43;2.83;;;;;;;21.70;100.00;99713.56;5106833;28;20435;-64
2023/07/28 12:12:31;;;;;;;2.08;1.70;;;;;;;21.75;100.00;99710.91;5112127;28;20036;-65
2023/07/28 12:15:04;;;;;;;3.55;2.15;;;;;;;21.71;100.00;99718.72;5111882;28;20028;-65
2023/07/28 12:17:30;;;;;;;3.22;2.00;;;;;;;21.60;100.00;99714.31;5112448;28;20042;-65
2023/07/28 12:20:02;;;;;;;2.90;1.90;;;;;;;21.60;100.00;99719.75;5111596;28;20438;-65
2023/07/28 12:22:29;;;;;;;3.75;2.10;;;;;;;21.58;100.00;99722.72;5091426;28;20040;-65
2023/07/28 12:24:55;;;;;;;2.75;1.98;;;;;;;21.48;100.00;99732.63;5091507;28;20036;-65
2023/07/28 12:27:23;;;;;;;3.75;2.05;;;;;;;21.38;100.00;99730.63;5109395;28;20381;-66
2023/07/28 12:29:49;;;;;;;4.55;2.05;;;;;;;21.28;100.00;99734.06;5111866;28;20424;-65
2023/07/28 12:32:14;;;;;;;4.18;2.85;;;;;;;21.19;100.00;99735.59;5112270;28;20042;-65
2023/07/28 12:34:40;;;;;;;4.03;2.50;;;;;;;21.08;100.00;99744.66;5111964;28;20119;-65
2023/07/28 12:37:06;;;;;;;5.35;2.60;;;;;;;21.07;100.00;99746.56;5112155;28;20453;-65
2023/07/28 12:39:32;;;;;;;3.75;2.20;;;;;;;21.05;100.00;99737.84;5111789;28;20396;-66
2023/07/28 12:41:57;;;;;;;3.75;2.15;;;;;;;20.94;100.00;99746.13;5112122;28;20499;-65
2023/07/28 12:44:22;;;;;;;3.20;2.20;;;;;;;20.89;100.00;99746.06;5116336;28;20595;-65
2023/07/28 12:46:48;;;;;;;3.60;2.17;;;;;;;20.81;100.00;99748.16;5116240;28;20448;-65
2023/07/28 12:49:14;;;;;;;3.47;2.38;;;;;;;20.73;100.00;99747.75;5116048;28;20047;-66
2023/07/28 12:51:40;;;;;;;2.93;2.27;;;;;;;20.65;100.00;99743.59;5115882;28;20039;-66
2023/07/28 12:54:05;;;;;;;4.72;2.72;;;;;;;20.68;100.00;99755.84;5116162;28;20035;-66
2023/07/28 12:56:31;;;;;;;3.33;2.40;;;;;;;20.59;100.00;99747.31;5115992;28;20104;-66
2023/07/28 12:58:56;;;;;;;3.30;2.47;;;;;;;20.52;100.00;99752.09;5115854;28;20480;-66
2023/07/28 13:01:21;;;;;;;3.38;2.38;;;;;;;20.46;100.00;99751.19;5115867;28;20035;-66
2023/07/28 13:03:47;;;;;;;6.10;2.80;;;;;;;20.40;100.00;99762.16;5116039;28;20078;-66
2023/07/28 13:06:12;;;;;;;3.45;2.45;;;;;;;20.40;100.00;99762.16;5115806;28;20040;-65
2023/07/28 13:08:38;;;;;;;3.50;2.65;;;;;;;20.38;100.00;99754.31;5114128;28;20378;-66
2023/07/28 13:11:03;;;;;;;3.58;2.33;;;;;;;20.32;100.00;99756.13;5115547;28;20097;-65
2023/07/28 13:13:30;;;;;;;3.58;2.40;;;;;;;20.40;100.00;99765.69;5115575;28;20042;-65
2023/07/28 13:15:55;;;;;;;6.28;4.28;;;;;;;20.38;100.00;99757.00;5115700;28;20389;-66
2023/07/28 13:18:21;;;;;;;4.30;2.75;;;;;;;20.40;100.00;99756.75;5115501;28;20051;-66
2023/07/28 13:20:46;;;;;;;3.63;2.63;;;;;;;20.40;100.00;99768.41;5115336;28;20043;-66
2023/07/28 13:23:12;;;;;;;4.30;2.60;;;;;;;20.40;100.00;99764.88;5114231;28;20035;-65
2023/07/28 13:25:38;;;;;;;3.13;2.40;;;;;;;20.44;100.00;99756.03;5115466;28;20400;-65
2023/07/28 13:28:04;;;;;;;4.22;2.60;;;;;;;20.33;100.00;99751.53;5115431;28;20105;-65
2023/07/28 13:30:30;;;;;;;2.90;2.30;;;;;;;20.40;100.00;99738.63;5115079;28;20084;-66
2023/07/28 13:32:55;;;;;;;2.88;2.28;;;;;;;20.33;100.00;99744.22;5114104;28;20400;-65
2023/07/28 13:35:20;;;;;;;3.78;2.42;;;;;;;20.40;100.00;99748.66;5115324;28;20051;-65
2023/07/28 13:37:46;;;;;;;3.08;2.20;;;;;;;20.35;100.00;99752.13;5115402;28;20043;-66
2023/07/28 13:40:11;;;;;;;3.10;2.35;;;;;;;20.39;100.00;99747.81;5114806;28;20032;-65
2023/07/28 13:42:36;;;;;;;2.70;2.30;;;;;;;20.32;100.00;99731.78;5115450;28;20381;-66
2023/07/28 13:45:02;;;;;;;2.75;2.20;;;;;;;20.33;100.00;99721.78;5115163;28;20063;-65
2023/07/28 13:47:27;;;;;;;2.80;2.10;;;;;;;20.32;100.00;99725.56;5115071;28;20040;-65
2023/07/28 13:49:53;;;;;;;3.17;2.17;;;;;;;20.35;100.00;99726.97;5114716;27;20088;-66
2023/07/28 13:52:18;;;;;;;2.90;2.10;;;;;;;20.31;100.00;99730.16;5114809;28;20040;-65
2023/07/28 13:54:44;;;;;;;5.38;2.45;;;;;;;20.31;100.00;99735.56;5114399;28;20034;-66
2023/07/28 13:57:10;;;;;;;5.15;1.90;;;;;;;20.38;100.00;99735.38;5114969;28;20039;-66
2023/07/28 13:59:36;;;;;;;3.25;2.40;;;;;;;20.36;100.00;99742.13;5114599;28;20039;-66
2023/07/28 14:02:01;;;;;;;3.17;2.22;;;;;;;20.33;100.00;99748.81;5114706;28;20114;-66
2023/07/28 14:04:27;;;;;;;3.35;2.35;;;;;;;20.37;100.00;99755.38;5114764;28;20173;-65
2023/07/28 14:06:52;;;;;;;12.73;6.93;;;;;;;20.33;100.00;99759.63;5114579;28;20114;-64
2023/07/28 14:09:17;;;;;;;12.45;7.47;;;;;;;20.25;100.00;99763.59;5112937;28;20063;-66
2023/07/28 14:11:43;;;;;;;3.78;2.38;;;;;;;20.25;100.00;99760.88;5113217;28;20040;-65
2023/07/28 14:14:08;;;;;;;3.78;2.40;;;;;;;20.21;100.00;99764.31;5114626;28;20118;-65
2023/07/28 14:16:34;;;;;;;4.63;1.98;;;;;;;20.19;100.00;99759.19;5114449;28;20044;-67
2023/07/28 14:18:59;;;;;;;3.85;2.30;;;;;;;20.14;100.00;99766.38;5114293;28;20194;-65
2023/07/28 14:21:24;;;;;;;5.50;2.45;;;;;;;20.05;100.00;99761.41;5114314;28;20404;-65
2023/07/28 14:23:50;;;;;;;3.20;2.10;;;;;;;20.02;100.00;99763.78;5114349;28;20512;-65
2023/07/28 14:26:15;;;;;;;2.67;1.77;;;;;;;20.00;100.00;99763.22;5112878;28;20039;-64
2023/07/28 14:28:41;;;;;;;2.97;2.08;;;;;;;19.98;100.00;99768.88;5113407;28;20047;-64
2023/07/28 14:31:06;;;;;;;2.78;2.00;;;;;;;20.05;100.00;99764.09;5114467;27;20030;-64
2023/07/28 14:33:31;;;;;;;4.45;1.85;;;;;;;20.02;100.00;99771.91;5114544;28;20088;-65
2023/07/28 14:35:57;;;;;;;2.50;1.38;;;;;;;19.96;100.00;99767.47;5116891;28;20043;-65
2023/07/28 14:38:22;;;;;;;3.28;2.10;;;;;;;19.98;100.00;99768.03;5122310;28;20126;-65
2023/07/28 14:40:48;;;;;;;2.10;1.70;;;;;;;19.97;100.00;99774.53;5115219;28;20043;-65
2023/07/28 14:43:15;;;;;;;2.25;1.50;;;;;;;19.99;100.00;99769.69;5112998;28;20051;-65
2023/07/28 14:45:41;;;;;;;1.77;1.40;;;;;;;20.02;100.00;99774.59;5113762;28;20024;-65
2023/07/28 14:48:07;;;;;;;2.75;1.73;;;;;;;19.97;100.00;99771.81;5113901;28;20130;-66
2023/07/28 14:50:32;;;;;;;4.97;2.10;;;;;;;20.02;100.00;99767.31;5114092;28;20043;-60
2023/07/28 14:52:59;;;;;;;2.38;1.75;;;;;;;20.03;100.00;99773.53;5113873;28;20161;-57
2023/07/28 14:55:25;;;;;;;2.33;1.75;;;;;;;19.86;100.00;99761.91;5113825;28;20067;-62
2023/07/28 14:57:51;;;;;;;2.75;1.70;;;;;;;19.86;100.00;99764.59;5113710;28;20035;-59
2023/07/28 15:00:16;;;;;;;2.20;1.67;;;;;;;19.80;100.00;99771.81;5113423;28;20043;-61
2023/07/28 15:02:42;;;;;;;2.92;1.80;;;;;;;19.67;100.00;99758.63;5113652;28;20031;-61
2023/07/28 15:05:07;;;;;;;2.00;1.45;;;;;;;19.67;100.00;99761.31;5112851;28;20043;-62
2023/07/28 15:07:34;;;;;;;2.42;1.25;;;;;;;19.60;100.00;99756.06;5113603;28;20130;-61
2023/07/28 15:09:59;;;;;;;2.60;1.85;;;;;;;19.59;100.00;99759.03;5113288;28;20404;-63
2023/07/28 15:12:24;;;;;;;2.00;1.42;;;;;;;19.66;100.00;99754.28;5113465;28;20042;-61
2023/07/28 15:14:50;;;;;;;3.45;1.80;;;;;;;19.62;100.00;99759.34;5112328;28;20450;-61
2023/07/28 15:17:15;;;;;;;6.88;4.65;;;;;;;19.69;100.00;99759.19;5112246;28;20039;-61
2023/07/28 15:19:40;;;;;;;2.72;1.67;;;;;;;19.65;100.00;99761.56;5111938;28;20123;-61
2023/07/28 15:22:06;;;;;;;2.55;1.60;;;;;;;19.69;100.00;99768.13;5112085;28;20050;-61
2023/07/28 15:24:31;;;;;;;2.95;1.63;;;;;;;19.75;100.00;99769.00;5112169;28;20043;-61
2023/07/28 15:26:56;;;;;;;3.53;1.77;;;;;;;19.64;100.00;99773.44;5112201;27;20114;-62
2023/07/28 15:29:22;;;;;;;2.17;1.48;;;;;;;19.63;100.00;99771.00;5112450;28;20039;-62
2023/07/28 15:31:47;;;;;;;2.15;1.58;;;;;;;19.65;100.00;99763.44;5113121;28;20122;-61
2023/07/28 15:34:13;;;;;;;4.18;1.90;;;;;;;19.64;100.00;99767.22;5113158;28;20555;-61
2023/07/28 15:36:38;;;;;;;3.42;2.10;;;;;;;19.62;100.00;99766.63;5112992;27;20047;-59
2023/07/28 15:39:03;;;;;;;2.22;1.85;;;;;;;19.67;100.00;99764.03;5112629;28;20074;-61
2023/07/28 15:41:29;;;;;;;3.78;1.80;;;;;;;19.69;100.00;99765.44;5113123;28;20629;-60
2023/07/28 15:43:55;;;;;;;2.83;2.10;;;;;;;19.65;100.00;99763.44;5112941;28;20046;-62
2023/07/28 15:46:20;;;;;;;19.20;14.18;;;;;;;19.66;100.00;99765.09;5112938;28;20036;-55